Time;durP1;ratioP1;P1;durP2;ratioP2;P2;SDS_P1;SDS_P2;PMS_P1;PMS_P2;Temp;Humidity;BMP_temperature;BMP_pressure;BME280_temperature;BME280_humidity;BME280_pressure;Samples;Min_cycle;Max_cycle;Signal;HPM_P1;HPM_P2
2024/02/12 00:01:10;;;;;;;8.90;4.50;;;;;;;13.02;80.49;98103.09;5110432;28;20435;-67
2024/02/12 00:03:38;;;;;;;10.13;3.30;;;;;;;12.95;81.04;98097.41;5110654;28;20469;-67
2024/02/12 00:06:04;;;;;;;9.77;3.97;;;;;;;12.85;82.43;98089.69;5100550;28;20447;-68
2024/02/12 00:08:30;;;;;;;7.18;2.53;;;;;;;12.78;84.37;98096.03;5090533;28;20043;-67
2024/02/12 00:10:58;;;;;;;10.30;3.33;;;;;;;12.74;85.87;98098.00;5090068;28;20024;-67
2024/02/12 00:13:24;;;;;;;7.15;2.53;;;;;;;12.55;87.11;98099.78;5091739;28;20111;-67
2024/02/12 00:15:49;;;;;;;8.98;2.88;;;;;;;12.50;87.22;98103.72;5110250;28;20042;-68
2024/02/12 00:18:15;;;;;;;10.93;3.40;;;;;;;12.52;87.13;98099.72;5100484;28;20032;-67
2024/02/12 00:20:41;;;;;;;9.50;2.70;;;;;;;12.62;86.31;98085.84;5089848;28;20452;-67
2024/02/12 00:23:07;;;;;;;8.52;3.67;;;;;;;12.42;87.50;98078.78;5075710;28;20030;-67
2024/02/12 00:25:33;;;;;;;7.28;3.38;;;;;;;12.43;87.82;98074.78;5092222;28;20034;-67
2024/02/12 00:27:58;;;;;;;6.40;2.72;;;;;;;12.57;86.96;98083.38;5108838;28;20027;-67
2024/02/12 00:30:24;;;;;;;6.32;2.72;;;;;;;12.78;85.69;98082.78;5091747;28;20028;-67
2024/02/12 00:32:49;;;;;;;6.00;2.40;;;;;;;13.00;84.27;98071.81;5110113;28;20045;-68
2024/02/12 00:35:18;;;;;;;9.25;2.85;;;;;;;12.67;85.89;98083.88;5110183;28;20506;-68
2024/02/12 00:37:43;;;;;;;10.77;2.78;;;;;;;12.85;85.30;98078.47;5109781;28;20092;-67
2024/02/12 00:40:11;;;;;;;5.47;2.03;;;;;;;12.89;84.25;98077.31;5109655;28;20495;-67
2024/02/12 00:42:41;;;;;;;7.95;2.45;;;;;;;12.73;85.36;98082.31;5089578;28;20030;-68
2024/02/12 00:45:10;;;;;;;10.43;2.88;;;;;;;12.85;84.34;98075.66;5089745;28;20051;-67
2024/02/12 00:47:36;;;;;;;9.68;2.53;;;;;;;12.91;84.70;98086.16;5071643;28;20150;-67
2024/02/12 00:50:06;;;;;;;5.78;2.53;;;;;;;12.84;85.88;98079.66;5089668;28;20036;-67
2024/02/12 00:52:37;;;;;;;5.40;1.85;;;;;;;12.83;86.10;98089.28;5090224;28;20063;-67
2024/02/12 00:55:13;;;;;;;7.38;2.03;;;;;;;12.62;87.27;98076.59;5098537;28;20030;-68
2024/02/12 00:57:39;;;;;;;5.93;2.25;;;;;;;12.55;86.99;98062.50;5113885;28;20048;-67
2024/02/12 01:00:09;;;;;;;7.03;2.78;;;;;;;12.52;86.52;98063.25;5096677;28;20024;-67
2024/02/12 01:02:35;;;;;;;8.95;2.78;;;;;;;12.56;87.12;98078.16;5093621;28;20023;-67
2024/02/12 01:05:01;;;;;;;7.55;2.85;;;;;;;12.67;86.48;98081.06;5093769;28;20512;-67
2024/02/12 01:07:27;;;;;;;5.72;3.22;;;;;;;12.69;86.89;98076.69;5093551;28;20027;-67
2024/02/12 01:09:54;;;;;;;11.32;3.72;;;;;;;12.81;85.62;98063.59;5086403;28;20028;-67
2024/02/12 01:12:19;;;;;;;14.88;3.45;;;;;;;12.87;84.78;98064.84;5095493;28;20034;-67
2024/02/12 01:14:45;;;;;;;7.05;2.90;;;;;;;12.60;86.67;98067.78;5110807;28;20032;-67
2024/02/12 01:17:10;;;;;;;9.95;2.90;;;;;;;12.31;89.41;98064.63;5113591;28;20151;-67
2024/02/12 01:19:36;;;;;;;5.57;2.80;;;;;;;12.10;91.14;98046.34;5113692;28;20492;-67
2024/02/12 01:22:03;;;;;;;6.28;2.78;;;;;;;12.21;89.08;98050.09;5113510;28;20035;-67
2024/02/12 01:24:30;;;;;;;9.30;3.53;;;;;;;12.06;90.22;98051.06;5113620;28;20480;-67
2024/02/12 01:26:56;;;;;;;13.50;3.90;;;;;;;11.34;96.68;98037.63;5111134;28;20015;-67
2024/02/12 01:29:24;;;;;;;9.73;4.80;;;;;;;11.28;99.63;98050.31;5101568;28;20028;-67
2024/02/12 01:31:50;;;;;;;17.38;4.38;;;;;;;11.32;97.79;98053.97;5092898;28;20035;-67
2024/02/12 01:34:16;;;;;;;15.52;4.75;;;;;;;11.20;98.15;98048.56;5074752;28;20518;-67
2024/02/12 01:36:41;;;;;;;15.80;6.18;;;;;;;10.88;100.00;98034.84;5093333;28;20032;-67
2024/02/12 01:39:07;;;;;;;10.95;6.10;;;;;;;10.91;100.00;98036.88;5093041;28;20039;-67
2024/02/12 01:41:32;;;;;;;16.27;5.43;;;;;;;10.88;100.00;98044.03;5092875;28;20035;-67
2024/02/12 01:43:58;;;;;;;15.45;4.40;;;;;;;11.05;99.97;98037.13;5074672;28;20024;-67
2024/02/12 01:46:23;;;;;;;13.38;4.93;;;;;;;11.09;99.70;98051.19;5098345;28;20484;-67
2024/02/12 01:48:49;;;;;;;13.35;5.28;;;;;;;11.12;99.64;98058.84;5092643;28;20420;-67
2024/02/12 01:51:15;;;;;;;12.15;5.05;;;;;;;11.10;99.92;98050.00;5074347;28;20050;-67
2024/02/12 01:53:47;;;;;;;13.82;4.90;;;;;;;10.82;100.00;98037.94;5092647;28;20020;-67
2024/02/12 01:56:13;;;;;;;19.23;5.82;;;;;;;10.82;100.00;98045.53;5092524;28;20530;-67
2024/02/12 01:58:40;;;;;;;12.13;4.15;;;;;;;10.84;100.00;98037.56;5073154;28;20082;-67
2024/02/12 02:01:14;;;;;;;17.33;5.30;;;;;;;10.75;100.00;98035.03;5091441;28;20044;-67
2024/02/12 02:03:43;;;;;;;14.10;4.95;;;;;;;10.79;100.00;98035.06;5079660;28;20107;-70
2024/02/12 02:06:09;;;;;;;12.38;4.72;;;;;;;10.65;100.00;98024.44;5073521;28;20500;-70
2024/02/12 02:08:36;;;;;;;11.32;3.90;;;;;;;10.64;100.00;98029.22;5091234;28;20027;-69
2024/02/12 02:11:04;;;;;;;6.15;4.03;;;;;;;10.66;100.00;98017.66;5072975;28;20031;-69
2024/02/12 02:13:31;;;;;;;14.05;3.88;;;;;;;10.71;100.00;98033.34;5091251;28;20455;-70
2024/02/12 02:15:57;;;;;;;5.80;3.00;;;;;;;10.84;100.00;98042.34;5073845;28;20439;-69
2024/02/12 02:18:22;;;;;;;7.65;2.60;;;;;;;10.67;100.00;98033.25;5091072;28;20027;-68
2024/02/12 02:20:48;;;;;;;4.68;2.33;;;;;;;10.57;100.00;98039.47;5090691;28;20085;-69
2024/02/12 02:23:13;;;;;;;4.78;2.22;;;;;;;10.52;100.00;98046.16;5090987;28;20028;-69
2024/02/12 02:25:40;;;;;;;5.13;2.25;;;;;;;10.59;99.71;98046.31;5084996;28;20028;-69
2024/02/12 02:28:05;;;;;;;7.72;2.03;;;;;;;10.68;97.58;98051.66;5108542;28;20428;-69
2024/02/12 02:30:31;;;;;;;6.68;2.03;;;;;;;10.72;95.30;98052.53;5111380;28;20023;-69
2024/02/12 02:32:56;;;;;;;4.38;1.33;;;;;;;10.49;96.06;98049.69;5097110;28;20202;-69
2024/02/12 02:35:22;;;;;;;4.70;1.67;;;;;;;10.35;95.85;98042.63;5076887;28;20038;-69
2024/02/12 02:37:48;;;;;;;2.08;1.42;;;;;;;10.25;96.02;98041.19;5092227;28;20584;-69
2024/02/12 02:40:13;;;;;;;2.58;1.20;;;;;;;10.20;97.28;98047.09;5111062;28;20020;-69
2024/02/12 02:42:39;;;;;;;2.03;1.33;;;;;;;10.20;97.01;98051.88;5111139;28;20053;-70
2024/02/12 02:45:08;;;;;;;4.32;1.30;;;;;;;10.17;97.60;98058.19;5097859;28;20443;-69
2024/02/12 02:47:36;;;;;;;3.30;1.60;;;;;;;10.11;96.67;98047.31;5111012;28;20051;-69
2024/02/12 02:50:01;;;;;;;6.80;1.90;;;;;;;10.07;96.72;98045.63;5092688;28;20023;-69
2024/02/12 02:52:27;;;;;;;3.08;1.33;;;;;;;10.04;95.95;98057.53;5098462;28;20163;-70
2024/02/12 02:54:55;;;;;;;1.60;1.17;;;;;;;10.05;95.81;98064.75;5090615;28;20033;-69
2024/02/12 02:57:20;;;;;;;1.33;1.10;;;;;;;9.93;95.77;98054.50;5050579;28;1165826;-68
2024/02/12 02:59:46;;;;;;;2.97;1.20;;;;;;;10.02;95.37;98059.88;5094783;28;20411;-69
2024/02/12 03:02:12;;;;;;;2.13;1.10;;;;;;;10.03;93.59;98062.31;5095047;28;20081;-69
2024/02/12 03:04:38;;;;;;;1.73;1.20;;;;;;;10.04;92.75;98063.13;5073590;28;20032;-69
2024/02/12 03:07:06;;;;;;;2.13;0.98;;;;;;;10.04;92.68;98075.09;5110835;28;20032;-69
2024/02/12 03:09:34;;;;;;;4.20;0.95;;;;;;;9.95;91.79;98080.91;5093539;28;20024;-69
2024/02/12 03:11:59;;;;;;;0.70;0.70;;;;;;;9.90;91.62;98083.97;5111639;28;20050;-69
2024/02/12 03:14:25;;;;;;;4.82;0.60;;;;;;;9.94;91.05;98089.63;5093080;28;20116;-69
2024/02/12 03:16:55;;;;;;;3.97;1.90;;;;;;;9.93;92.41;98096.38;5089353;28;20031;-70
2024/02/12 03:19:20;;;;;;;8.98;1.35;;;;;;;9.80;92.41;98090.91;5090922;28;20016;-69
2024/02/12 03:21:49;;;;;;;9.70;0.90;;;;;;;9.72;96.09;98093.91;5090918;28;20031;-71
2024/02/12 03:24:19;;;;;;;2.15;0.52;;;;;;;9.51;98.52;98089.44;5090861;28;20020;-70
2024/02/12 03:26:45;;;;;;;3.63;1.13;;;;;;;9.41;100.00;98108.38;5111169;28;20027;-70
2024/02/12 03:29:12;;;;;;;4.32;1.00;;;;;;;9.37;100.00;98121.41;5109908;28;20031;-70
2024/02/12 03:31:40;;;;;;;7.57;1.45;;;;;;;9.26;100.00;98145.44;5111249;28;20023;-71
2024/02/12 03:34:06;;;;;;;4.53;1.20;;;;;;;9.23;100.00;98160.09;5111385;28;20023;-71
2024/02/12 03:36:31;;;;;;;5.28;1.40;;;;;;;9.05;100.00;98165.22;5094405;28;20514;-71
2024/02/12 03:38:58;;;;;;;4.47;1.25;;;;;;;8.93;100.00;98175.25;5090915;28;20510;-70
2024/02/12 03:41:24;;;;;;;8.35;2.10;;;;;;;8.84;100.00;98182.94;5090796;28;20103;-69
2024/02/12 03:43:53;;;;;;;2.25;1.52;;;;;;;8.85;100.00;98173.41;5082336;28;20476;-70
2024/02/12 03:46:28;;;;;;;5.38;1.08;;;;;;;8.63;100.00;98160.84;5102403;28;20404;-71
2024/02/12 03:59:51;;;;;;;4.43;1.23;;;;;;;8.51;100.00;98201.53;5110441;28;20081;-73
2024/02/12 04:02:18;;;;;;;3.25;1.02;;;;;;;8.34;100.00;98201.78;5111161;28;20028;-73
2024/02/12 04:04:44;;;;;;;5.70;2.10;;;;;;;8.25;100.00;98188.78;5110229;28;20054;-72
2024/02/12 04:07:10;;;;;;;3.03;1.67;;;;;;;8.27;100.00;98175.31;5092167;28;20050;-72
2024/02/12 04:09:38;;;;;;;7.63;3.05;;;;;;;8.19;100.00;98173.47;5088557;28;20552;-74
2024/02/12 04:12:14;;;;;;;4.32;1.20;;;;;;;8.19;100.00;98181.03;5090444;28;20047;-74
2024/02/12 04:14:42;;;;;;;2.97;1.00;;;;;;;8.17;100.00;98178.59;5089985;28;20028;-70
2024/02/12 04:17:09;;;;;;;2.42;1.08;;;;;;;8.13;100.00;98172.09;5105792;28;20019;-73
2024/02/12 04:19:38;;;;;;;1.77;1.15;;;;;;;8.18;100.00;98171.84;5092240;28;20031;-72
2024/02/12 04:22:09;;;;;;;0.98;0.90;;;;;;;8.18;100.00;98173.84;5110819;28;20020;-73
2024/02/12 04:24:40;;;;;;;7.18;1.33;;;;;;;8.20;100.00;98171.50;5108951;28;20038;-72
2024/02/12 04:27:07;;;;;;;2.47;1.13;;;;;;;8.21;100.00;98179.53;5087786;28;20023;-73
2024/02/12 04:29:36;;;;;;;3.17;1.20;;;;;;;8.28;100.00;98174.16;5088993;28;20024;-72
2024/02/12 04:32:03;;;;;;;3.92;1.40;;;;;;;8.27;100.00;98172.53;5090304;28;20024;-73
2024/02/12 04:34:28;;;;;;;1.60;0.88;;;;;;;8.26;100.00;98178.44;5071932;28;20397;-73
2024/02/12 04:36:55;;;;;;;6.15;1.77;;;;;;;8.43;100.00;98175.41;5090366;28;20039;-73
2024/02/12 04:39:21;;;;;;;9.52;5.35;;;;;;;8.56;100.00;98162.25;5108019;28;20458;-74
2024/02/12 04:41:51;;;;;;;9.98;5.93;;;;;;;8.57;100.00;98163.09;5088425;28;20066;-74
2024/02/12 04:44:17;;;;;;;33.67;13.45;;;;;;;8.42;100.00;98151.50;5088612;28;20111;-73
2024/02/12 04:46:42;;;;;;;25.77;13.40;;;;;;;8.73;100.00;98157.56;5088267;28;20115;-74
2024/02/12 04:49:09;;;;;;;20.27;11.90;;;;;;;8.85;100.00;98148.31;5109563;28;20042;-74
2024/02/12 04:51:38;;;;;;;11.43;4.38;;;;;;;8.99;100.00;98134.81;5109970;28;20030;-73
2024/02/12 04:54:04;;;;;;;9.23;5.30;;;;;;;9.07;100.00;98133.00;5091995;28;20394;-74
2024/02/12 04:56:30;;;;;;;6.88;4.82;;;;;;;9.25;100.00;98118.69;5109043;28;20535;-74
2024/02/12 04:58:58;;;;;;;8.13;4.07;;;;;;;9.40;100.00;98119.88;5106948;28;20020;-74
2024/02/12 05:01:26;;;;;;;4.93;2.58;;;;;;;9.48;100.00;98113.31;5091636;28;20127;-74
2024/02/12 05:03:53;;;;;;;8.60;4.45;;;;;;;9.52;100.00;98125.38;5077610;28;20123;-73
2024/02/12 05:06:19;;;;;;;5.18;1.80;;;;;;;9.57;100.00;98124.28;5075376;28;20111;-73
2024/02/12 05:08:46;;;;;;;2.10;1.00;;;;;;;9.64;100.00;98113.28;5109653;28;20035;-72
2024/02/12 05:11:14;;;;;;;2.22;1.17;;;;;;;9.79;100.00;98105.28;5091830;28;20046;-73
2024/02/12 05:13:40;;;;;;;5.35;1.88;;;;;;;9.86;100.00;98113.00;5090919;28;20050;-73
2024/02/12 05:16:07;;;;;;;4.25;1.60;;;;;;;9.82;100.00;98108.13;5106719;28;20024;-73
2024/02/12 05:24:04;;;;;;;5.10;1.70;;;;;;;9.81;100.00;98094.53;5110063;28;20034;-74
2024/02/12 05:26:30;;;;;;;3.60;2.35;;;;;;;9.89;100.00;98084.34;5090819;28;20020;-74
2024/02/12 05:28:55;;;;;;;18.33;6.90;;;;;;;9.71;100.00;98070.75;5109664;28;20415;-73
2024/02/12 05:31:21;;;;;;;10.30;3.67;;;;;;;9.70;100.00;98066.34;5109996;28;20024;-69
2024/02/12 05:33:47;;;;;;;8.15;2.95;;;;;;;9.72;100.00;98052.84;5109628;28;20024;-68
2024/02/12 05:36:17;;;;;;;10.35;4.82;;;;;;;9.75;100.00;98042.91;5106313;28;20070;-69
2024/02/12 05:38:46;;;;;;;18.63;7.18;;;;;;;9.79;100.00;98043.84;5092069;28;20027;-69
2024/02/12 05:41:13;;;;;;;14.13;5.75;;;;;;;9.89;100.00;98034.06;5113257;28;20477;-70
2024/02/12 05:43:39;;;;;;;10.98;4.78;;;;;;;9.86;100.00;98030.00;5113329;28;20057;-69
2024/02/12 05:46:05;;;;;;;11.95;6.38;;;;;;;9.76;100.00;98023.03;5105519;28;20020;-67
2024/02/12 05:48:30;;;;;;;13.68;8.20;;;;;;;9.60;100.00;98014.69;5092887;28;20488;-68
2024/02/12 05:50:57;;;;;;;5.43;3.70;;;;;;;9.40;100.00;98008.25;5092834;28;20480;-69
2024/02/12 05:53:23;;;;;;;28.20;21.33;;;;;;;9.30;100.00;97998.47;5084157;28;20035;-69
2024/02/12 05:55:48;;;;;;;18.02;12.52;;;;;;;9.30;100.00;98008.81;5112175;28;20059;-69
2024/02/12 05:58:14;;;;;;;8.52;5.15;;;;;;;9.22;100.00;98016.19;5107281;28;20027;-69
2024/02/12 06:00:41;;;;;;;21.30;11.13;;;;;;;9.06;100.00;98000.28;5092632;28;20019;-68
2024/02/12 06:03:06;;;;;;;8.25;4.68;;;;;;;8.91;100.00;98004.69;5092619;28;20024;-67
2024/02/12 06:05:32;;;;;;;9.10;3.80;;;;;;;8.95;100.00;98002.81;5092559;28;20035;-70
2024/02/12 06:07:57;;;;;;;7.10;3.70;;;;;;;9.08;100.00;98008.28;5094811;28;20032;-69
2024/02/12 06:10:23;;;;;;;16.83;4.75;;;;;;;9.09;100.00;98005.16;5112060;28;20530;-69
2024/02/12 06:12:48;;;;;;;10.20;4.30;;;;;;;9.08;100.00;97997.94;5106729;28;20023;-67
2024/02/12 06:15:14;;;;;;;7.63;4.47;;;;;;;9.11;100.00;97988.84;5110409;28;20058;-69
2024/02/12 06:17:39;;;;;;;13.05;4.78;;;;;;;9.02;100.00;97993.00;5095310;28;20068;-68
2024/02/12 06:20:05;;;;;;;10.27;4.97;;;;;;;9.12;100.00;97998.84;5092312;28;20032;-68
2024/02/12 06:22:31;;;;;;;10.18;4.68;;;;;;;9.07;100.00;98018.66;5094539;28;20016;-68
2024/02/12 06:24:57;;;;;;;12.77;4.60;;;;;;;9.21;100.00;98025.75;5092097;28;20404;-68
2024/02/12 06:27:22;;;;;;;28.95;21.70;;;;;;;9.43;100.00;98029.06;5084754;28;20016;-68
2024/02/12 06:29:48;;;;;;;11.85;5.05;;;;;;;9.52;100.00;98038.03;5092342;28;20039;-69
2024/02/12 06:32:15;;;;;;;24.67;15.45;;;;;;;9.57;100.00;98051.72;5106654;28;20023;-67
2024/02/12 06:34:44;;;;;;;21.00;10.68;;;;;;;9.60;100.00;98067.72;5084892;28;20035;-66
2024/02/12 06:37:11;;;;;;;27.23;15.47;;;;;;;9.72;100.00;98063.22;5074138;28;20076;-67
2024/02/12 06:39:37;;;;;;;17.50;9.02;;;;;;;9.80;100.00;98082.53;5071931;28;20481;-69
2024/02/12 06:42:03;;;;;;;46.05;23.73;;;;;;;9.76;100.00;98086.44;5074429;28;20363;-76
2024/02/12 06:44:29;;;;;;;31.58;17.63;;;;;;;9.30;100.00;98086.94;5101825;28;20030;-72
2024/02/12 06:46:55;;;;;;;22.55;13.40;;;;;;;8.88;100.00;98105.81;5107434;28;20436;-76
2024/02/12 06:49:21;;;;;;;12.90;6.68;;;;;;;8.60;100.00;98100.25;5087415;28;20116;-74
2024/02/12 06:51:47;;;;;;;12.90;7.60;;;;;;;8.40;100.00;98080.56;5082685;28;20037;-77
2024/02/12 06:54:13;;;;;;;9.52;6.43;;;;;;;8.18;100.00;98081.91;5089310;28;20065;-72
2024/02/12 06:56:41;;;;;;;14.73;7.38;;;;;;;8.17;100.00;98080.31;5103269;28;22048;-73
2024/02/12 06:59:07;;;;;;;14.07;6.95;;;;;;;8.16;100.00;98062.75;5105766;28;20063;-71
2024/02/12 07:01:33;;;;;;;21.42;10.15;;;;;;;8.30;100.00;98076.31;5105616;28;20032;-76
2024/02/12 07:03:59;;;;;;;19.35;11.85;;;;;;;8.25;100.00;98060.66;5086631;28;20058;-80
2024/02/12 07:06:25;;;;;;;46.00;38.45;;;;;;;8.27;100.00;98046.38;5085462;28;20255;-75
2024/02/12 07:08:51;;;;;;;36.75;27.20;;;;;;;8.10;100.00;98033.56;5092315;28;20697;-76
2024/02/12 07:11:16;;;;;;;17.65;11.25;;;;;;;8.41;100.00;98059.88;5088617;28;20171;-73
2024/02/12 07:13:42;;;;;;;12.40;8.05;;;;;;;8.57;100.00;98076.69;5106685;28;20023;-74
2024/02/12 07:16:08;;;;;;;25.85;16.35;;;;;;;8.71;100.00;98090.22;5096441;28;20044;-75
2024/02/12 07:18:34;;;;;;;28.52;20.00;;;;;;;8.51;100.00;98100.41;5092451;28;20031;-75
2024/02/12 07:20:59;;;;;;;88.90;51.00;;;;;;;8.53;100.00;98112.00;5108666;28;20053;-76
2024/02/12 07:23:25;;;;;;;27.98;17.40;;;;;;;8.52;100.00;98125.13;5109090;28;20033;-76
2024/02/12 07:25:50;;;;;;;26.20;16.20;;;;;;;8.48;100.00;98143.69;5103946;28;20024;-75
2024/02/12 07:28:18;;;;;;;16.05;9.80;;;;;;;8.31;100.00;98155.94;5107443;28;20051;-76
2024/02/12 07:30:45;;;;;;;11.45;7.88;;;;;;;8.28;100.00;98151.88;5089941;28;20028;-76
2024/02/12 07:33:10;;;;;;;20.40;10.20;;;;;;;8.22;100.00;98152.47;5107548;28;20670;-76
2024/02/12 07:35:36;;;;;;;15.80;9.32;;;;;;;8.06;100.00;98157.94;5102078;28;20034;-76
2024/02/12 07:38:03;;;;;;;28.23;16.25;;;;;;;8.07;100.00;98162.34;5104406;28;20031;-76
2024/02/12 07:40:32;;;;;;;27.17;19.13;;;;;;;8.16;100.00;98171.41;5109020;28;20419;-76
2024/02/12 07:42:59;;;;;;;16.65;9.02;;;;;;;8.08;100.00;98164.78;5086813;28;20544;-76
2024/02/12 07:45:27;;;;;;;18.45;9.73;;;;;;;8.19;100.00;98173.47;5079118;28;20115;-76
2024/02/12 07:47:53;;;;;;;16.23;8.15;;;;;;;8.23;100.00;98168.00;5093863;28;20031;-73
2024/02/12 07:50:19;;;;;;;13.20;7.95;;;;;;;8.24;100.00;98159.31;5080531;28;20420;-76
2024/02/12 07:52:44;;;;;;;13.60;7.00;;;;;;;8.29;100.00;98144.34;5104482;28;20031;-68
2024/02/12 07:55:14;;;;;;;14.30;9.82;;;;;;;8.48;100.00;98156.81;5109446;28;20062;-69
2024/02/12 07:57:44;;;;;;;23.98;14.38;;;;;;;8.32;100.00;98159.50;5076610;28;20127;-68
2024/02/12 08:00:14;;;;;;;24.17;13.63;;;;;;;8.34;100.00;98151.63;5071060;28;20111;-68
2024/02/12 08:02:40;;;;;;;26.95;13.32;;;;;;;8.56;100.00;98153.91;5075922;28;20396;-68
2024/02/12 08:05:06;;;;;;;22.10;12.90;;;;;;;8.65;100.00;98152.94;5087671;28;20070;-68
2024/02/12 08:07:32;;;;;;;18.65;12.88;;;;;;;9.02;100.00;98149.19;5086730;28;20405;-68
2024/02/12 08:09:59;;;;;;;9.70;4.85;;;;;;;9.16;100.00;98151.53;5077994;28;20257;-68
2024/02/12 08:12:25;;;;;;;6.40;4.93;;;;;;;8.96;100.00;98151.44;5088526;28;20028;-68
2024/02/12 08:14:51;;;;;;;16.33;9.40;;;;;;;9.06;100.00;98142.53;5088794;28;20415;-69
2024/02/12 08:17:17;;;;;;;13.02;6.28;;;;;;;9.24;100.00;98151.38;5088946;28;20516;-68
2024/02/12 08:19:42;;;;;;;14.02;4.22;;;;;;;9.17;100.00;98144.78;5089804;28;20034;-69
2024/02/12 08:22:08;;;;;;;9.00;4.60;;;;;;;9.22;100.00;98148.13;5089633;28;20028;-69
2024/02/12 08:24:34;;;;;;;12.00;4.95;;;;;;;9.12;100.00;98138.31;5089809;28;20024;-68
2024/02/12 08:27:00;;;;;;;11.07;5.82;;;;;;;9.35;100.00;98136.88;5083158;28;20020;-69
2024/02/12 08:29:26;;;;;;;7.35;4.32;;;;;;;9.61;100.00;98139.13;5089860;28;20034;-68
2024/02/12 08:31:51;;;;;;;11.88;3.50;;;;;;;9.73;100.00;98129.03;5085982;28;20024;-68
2024/02/12 08:34:17;;;;;;;5.90;2.00;;;;;;;9.77;100.00;98143.88;5077712;28;20024;-68
2024/02/12 08:36:43;;;;;;;10.80;3.95;;;;;;;9.59;100.00;98138.69;5089045;28;20057;-69
2024/02/12 08:39:13;;;;;;;7.68;4.47;;;;;;;9.69;100.00;98143.72;5089245;28;20024;-68
2024/02/12 08:41:39;;;;;;;9.05;4.50;;;;;;;10.03;100.00;98136.94;5086491;28;20039;-70
2024/02/12 08:44:05;;;;;;;10.20;4.25;;;;;;;10.23;100.00;98124.59;5069222;28;20050;-70
2024/02/12 08:46:33;;;;;;;10.00;4.60;;;;;;;10.60;100.00;98136.56;5079975;28;20164;-69
2024/02/12 08:48:59;;;;;;;7.85;3.00;;;;;;;10.76;100.00;98144.88;5089939;28;20020;-68
2024/02/12 08:51:26;;;;;;;12.02;2.95;;;;;;;10.92;100.00;98142.00;5085397;28;20619;-69
2024/02/12 08:53:52;;;;;;;8.23;3.70;;;;;;;10.80;100.00;98146.59;5081978;28;20035;-70
2024/02/12 08:56:17;;;;;;;4.28;2.40;;;;;;;10.72;100.00;98153.19;5096373;28;20044;-68
2024/02/12 08:58:44;;;;;;;5.80;3.70;;;;;;;10.90;100.00;98149.97;5109624;28;20023;-68
2024/02/12 09:01:13;;;;;;;7.15;3.55;;;;;;;11.09;100.00;98161.13;5108708;28;20031;-69
2024/02/12 09:03:40;;;;;;;9.98;3.10;;;;;;;11.24;100.00;98159.41;5109895;28;20048;-70
2024/02/12 09:06:12;;;;;;;9.80;6.45;;;;;;;11.36;100.00;98152.81;5102040;28;20371;-71
2024/02/12 09:08:41;;;;;;;9.00;6.15;;;;;;;11.61;100.00;98157.22;5109781;28;20096;-68
2024/02/12 09:11:07;;;;;;;8.98;5.93;;;;;;;11.63;100.00;98161.28;5109720;28;20031;-67
2024/02/12 09:13:33;;;;;;;8.25;5.07;;;;;;;12.05;100.00;98162.38;5109020;28;20023;-67
2024/02/12 09:15:59;;;;;;;10.73;5.22;;;;;;;12.20;100.00;98154.19;5110111;28;20024;-66
2024/02/12 09:18:28;;;;;;;14.48;9.50;;;;;;;11.82;100.00;98130.75;5104214;28;20035;-67
2024/02/12 09:20:56;;;;;;;8.70;6.30;;;;;;;11.71;100.00;98130.59;5094937;28;20114;-71
2024/02/12 09:23:22;;;;;;;12.32;4.60;;;;;;;11.71;100.00;98141.81;5111075;28;20024;-69
2024/02/12 09:25:51;;;;;;;21.58;9.68;;;;;;;11.70;100.00;98137.38;5109097;28;20028;-68
2024/02/12 09:28:17;;;;;;;8.80;6.32;;;;;;;11.55;100.00;98127.94;5109733;28;20020;-68
2024/02/12 09:30:44;;;;;;;15.93;8.52;;;;;;;11.83;100.00;98140.78;5109977;28;20593;-68
2024/02/12 09:33:12;;;;;;;17.58;5.82;;;;;;;12.14;100.00;98128.47;5111514;28;20031;-69
2024/02/12 09:35:37;;;;;;;11.48;5.47;;;;;;;12.19;100.00;98132.94;5093564;28;20085;-69
2024/02/12 09:38:03;;;;;;;7.15;3.95;;;;;;;12.76;100.00;98132.88;5113302;28;20475;-70
2024/02/12 09:40:33;;;;;;;6.53;2.70;;;;;;;12.63;100.00;98134.31;5112282;28;20039;-70
2024/02/12 09:43:00;;;;;;;11.93;6.38;;;;;;;12.46;96.96;98130.09;5113731;28;20114;-69
2024/02/12 09:45:29;;;;;;;15.82;6.15;;;;;;;12.68;97.26;98125.59;5082773;28;20032;-69
2024/02/12 09:47:55;;;;;;;12.48;5.78;;;;;;;12.80;99.74;98140.56;5110304;28;20031;-70
2024/02/12 09:50:22;;;;;;;11.57;4.20;;;;;;;12.96;95.68;98127.09;5112374;28;20027;-68
2024/02/12 09:52:49;;;;;;;6.35;3.40;;;;;;;13.13;97.57;98128.47;5111973;28;20110;-72
2024/02/12 09:55:17;;;;;;;9.85;2.65;;;;;;;13.19;94.40;98117.72;5112240;28;20028;-72
2024/02/12 09:57:43;;;;;;;6.45;2.30;;;;;;;13.41;93.83;98117.91;5104970;28;20511;-72
2024/02/12 10:00:12;;;;;;;6.78;3.05;;;;;;;13.31;92.78;98106.19;5110695;28;20031;-72
2024/02/12 10:02:41;;;;;;;4.47;1.85;;;;;;;13.45;91.95;98107.56;5107930;28;20024;-69
2024/02/12 10:05:10;;;;;;;10.50;2.08;;;;;;;13.61;94.26;98098.84;5109272;28;20517;-72
2024/02/12 10:07:39;;;;;;;5.60;1.98;;;;;;;14.15;90.77;98099.22;5106488;28;20058;-69
2024/02/12 10:10:09;;;;;;;8.27;2.10;;;;;;;14.64;89.74;98117.94;5107447;28;20481;-73
2024/02/12 10:12:37;;;;;;;6.65;1.67;;;;;;;14.85;86.61;98123.69;5093185;28;20088;-71
2024/02/12 10:15:04;;;;;;;7.78;1.65;;;;;;;14.88;82.67;98117.25;5112104;28;20084;-71
2024/02/12 10:17:31;;;;;;;6.38;1.58;;;;;;;15.01;81.00;98122.50;5111373;28;20031;-71
2024/02/12 10:19:57;;;;;;;8.65;1.58;;;;;;;15.01;83.32;98111.25;5107217;28;20495;-72
2024/02/12 10:22:25;;;;;;;5.10;1.20;;;;;;;14.97;83.75;98108.44;5086405;28;20101;-71
2024/02/12 10:24:51;;;;;;;6.50;1.42;;;;;;;15.33;83.38;98107.69;5107329;28;20476;-72
2024/02/12 10:27:23;;;;;;;12.98;1.58;;;;;;;15.47;80.50;98106.91;5082482;28;20028;-72
2024/02/12 10:30:05;;;;;;;11.85;1.85;;;;;;;15.35;78.56;98093.22;5089422;28;20034;-73
2024/02/12 10:32:34;;;;;;;13.68;1.90;;;;;;;15.34;77.39;98097.25;5088164;28;20050;-72
2024/02/12 10:35:06;;;;;;;9.55;2.10;;;;;;;15.09;79.26;98086.75;5109187;28;20031;-72
2024/02/12 10:37:33;;;;;;;8.85;1.55;;;;;;;15.55;77.29;98085.97;5102100;28;20049;-71
2024/02/12 10:40:12;;;;;;;7.25;1.63;;;;;;;15.80;76.99;98075.91;5092114;28;20032;-72
2024/02/12 10:42:42;;;;;;;14.65;2.40;;;;;;;15.82;74.45;98070.66;5106049;28;20062;-71
2024/02/12 10:45:08;;;;;;;13.60;2.20;;;;;;;15.92;73.95;98077.50;5086855;28;20027;-72
2024/02/12 10:47:35;;;;;;;11.98;1.70;;;;;;;15.96;76.77;98075.50;5101062;28;20024;-73
2024/02/12 10:50:03;;;;;;;10.80;2.03;;;;;;;16.16;78.80;98067.41;5106890;28;20085;-72
2024/02/12 10:52:29;;;;;;;23.83;2.17;;;;;;;15.79;76.69;98061.00;5104128;28;20051;-72
2024/02/12 10:54:56;;;;;;;28.65;3.70;;;;;;;15.54;73.67;98055.41;5103671;28;20349;-72
2024/02/12 10:57:23;;;;;;;14.80;3.53;;;;;;;15.69;71.97;98054.16;5088290;28;20047;-71
2024/02/12 11:00:05;;;;;;;10.85;2.40;;;;;;;15.14;73.31;98061.00;5105581;28;20124;-71
2024/02/12 11:02:45;;;;;;;17.65;2.92;;;;;;;15.12;70.36;98063.44;5087956;28;20059;-72
2024/02/12 11:05:29;;;;;;;17.45;3.33;;;;;;;15.33;73.78;98044.94;5086619;28;20024;-72
2024/02/12 11:08:09;;;;;;;18.90;2.70;;;;;;;15.42;72.54;98019.97;5087658;28;20492;-72
2024/02/12 11:10:35;;;;;;;14.90;3.72;;;;;;;15.62;69.16;98034.44;5108942;28;20500;-71
2024/02/12 11:13:05;;;;;;;15.88;2.55;;;;;;;15.71;69.12;98037.66;5105949;28;20123;-72
2024/02/12 11:15:33;;;;;;;25.38;4.38;;;;;;;15.53;68.35;98028.44;5103067;28;20031;-70
2024/02/12 11:18:11;;;;;;;21.20;3.55;;;;;;;15.65;71.49;98028.00;5099171;28;20027;-71
2024/02/12 11:20:46;;;;;;;25.10;2.53;;;;;;;15.79;69.55;98026.38;5103487;28;20035;-71
2024/02/12 11:23:20;;;;;;;19.92;3.03;;;;;;;15.64;66.95;98025.59;5095552;28;20034;-75
2024/02/12 11:25:46;;;;;;;25.20;3.63;;;;;;;15.72;68.95;98011.06;5100158;28;20043;-76
2024/02/12 11:28:16;;;;;;;19.08;3.03;;;;;;;16.05;65.16;98010.22;5105082;28;20015;-75
2024/02/12 11:30:48;;;;;;;26.27;2.88;;;;;;;15.92;64.34;98009.84;5106035;28;20415;-74
2024/02/12 11:33:14;;;;;;;30.13;3.30;;;;;;;15.91;59.68;98014.69;5087576;28;20703;-72
2024/02/12 11:35:40;;;;;;;35.17;4.70;;;;;;;16.07;56.41;98021.91;5084538;28;20800;-72
2024/02/12 11:38:07;;;;;;;23.65;2.28;;;;;;;16.10;55.43;98004.97;5089377;28;20034;-72
2024/02/12 11:40:35;;;;;;;23.85;3.88;;;;;;;16.11;61.85;97998.13;5099730;28;20034;-72
2024/02/12 11:43:00;;;;;;;19.02;2.55;;;;;;;16.28;57.10;98002.06;5105286;28;20059;-72